This is the latest recevied weather packets stored in our database for station/object HA5CD-6. If no packets are shown the sender has not sent any weather packets the latest 10 day(s).
| Time | Temp. | Humidity | Pressure | Rain* | Wind** | Luminosity | Snow |
|---|---|---|---|---|---|---|---|
| 1777444830 | 16.67° C | 23% | 999 hPa | - | - | - | - |
| 1777444231 | 17.78° C | 23% | 999 hPa | - | - | - | - |
| 1777443630 | 16.11° C | 23% | 999 hPa | - | - | - | - |
| 1777443030 | 15.56° C | 24% | 999 hPa | - | - | - | - |
| 1777442430 | 15.56° C | 23% | 999 hPa | - | - | - | - |
| 1777441830 | 15° C | 24% | 999 hPa | - | - | - | - |
| 1777441230 | 15.56° C | 24% | 999 hPa | - | - | - | - |
| 1777440630 | 14.44° C | 24% | 999 hPa | - | - | - | - |
| 1777440029 | 14.44° C | 25% | 999 hPa | - | - | - | - |
| 1777439429 | 14.44° C | 25% | 999 hPa | - | - | - | - |
| 1777438829 | 15° C | 24% | 999 hPa | - | - | - | - |
| 1777438229 | 13.89° C | 26% | 999 hPa | - | - | - | - |
| 1777429225 | 8.89° C | 31% | 998 hPa | - | - | - | - |
| 1777423824 | 9.44° C | 30% | 997 hPa | - | - | - | - |
| 1777415421 | 10.56° C | 34% | 997 hPa | - | - | - | - |
| 1777414220 | 10.56° C | 35% | 997 hPa | - | - | - | - |
| 1777413620 | 11.11° C | 37% | 997 hPa | - | - | - | - |
| 1777408219 | 12.78° C | 40% | 996 hPa | - | - | - | - |
| 1777407619 | 13.33° C | 39% | 996 hPa | - | - | - | - |
| 1777407019 | 13.33° C | 39% | 996 hPa | - | - | - | - |
| 1777404618 | 14.44° C | 36% | 996 hPa | - | - | - | - |
| 1777403418 | 14.44° C | 37% | 996 hPa | - | - | - | - |
| 1777401018 | 15° C | 36% | 995 hPa | - | - | - | - |
| 1777397417 | 17.22° C | 31% | 995 hPa | - | - | - | - |
| 1777396817 | 20° C | 28% | 995 hPa | - | - | - | - |
* Rain since midnight (hover to see other rain measurements)
** Current wind speed in m/s (hover to see current wind gust speed)